sensor_id;sensor_type;location;lat;lon;timestamp;P1;durP1;ratioP1;P2;durP2;ratioP2
10894;SDS011;5500;49.886;8.074;2024-03-17T00:01:35;7.90;;;4.53;;
10894;SDS011;5500;49.886;8.074;2024-03-17T00:04:02;4.57;;;4.17;;
10894;SDS011;5500;49.886;8.074;2024-03-17T00:06:29;5.17;;;4.67;;
10894;SDS011;5500;49.886;8.074;2024-03-17T00:08:56;5.20;;;4.20;;
10894;SDS011;5500;49.886;8.074;2024-03-17T00:11:22;4.27;;;3.53;;
10894;SDS011;5500;49.886;8.074;2024-03-17T00:13:49;5.10;;;4.00;;
10894;SDS011;5500;49.886;8.074;2024-03-17T00:16:14;5.57;;;4.13;;
10894;SDS011;5500;49.886;8.074;2024-03-17T00:18:44;4.17;;;3.67;;
10894;SDS011;5500;49.886;8.074;2024-03-17T00:21:09;4.20;;;3.13;;
10894;SDS011;5500;49.886;8.074;2024-03-17T00:23:37;4.73;;;3.27;;
10894;SDS011;5500;49.886;8.074;2024-03-17T00:26:03;7.33;;;3.77;;
10894;SDS011;5500;49.886;8.074;2024-03-17T00:28:30;5.40;;;3.33;;
10894;SDS011;5500;49.886;8.074;2024-03-17T00:30:56;4.53;;;3.43;;
10894;SDS011;5500;49.886;8.074;2024-03-17T00:33:22;8.00;;;3.47;;
10894;SDS011;5500;49.886;8.074;2024-03-17T00:35:49;4.33;;;3.30;;
10894;SDS011;5500;49.886;8.074;2024-03-17T00:38:16;4.23;;;2.70;;
10894;SDS011;5500;49.886;8.074;2024-03-17T00:40:43;5.27;;;3.33;;
10894;SDS011;5500;49.886;8.074;2024-03-17T00:43:12;6.07;;;3.17;;
10894;SDS011;5500;49.886;8.074;2024-03-17T00:45:38;4.23;;;3.50;;
10894;SDS011;5500;49.886;8.074;2024-03-17T00:48:05;5.17;;;3.70;;
10894;SDS011;5500;49.886;8.074;2024-03-17T00:50:31;4.40;;;3.77;;
10894;SDS011;5500;49.886;8.074;2024-03-17T00:52:58;5.97;;;3.30;;
10894;SDS011;5500;49.886;8.074;2024-03-17T00:55:25;4.30;;;3.87;;
10894;SDS011;5500;49.886;8.074;2024-03-17T00:57:53;5.60;;;3.97;;
10894;SDS011;5500;49.886;8.074;2024-03-17T01:00:19;4.93;;;4.10;;
10894;SDS011;5500;49.886;8.074;2024-03-17T01:02:46;5.23;;;3.83;;
10894;SDS011;5500;49.886;8.074;2024-03-17T01:05:12;6.03;;;3.80;;
10894;SDS011;5500;49.886;8.074;2024-03-17T01:07:39;3.87;;;3.43;;
10894;SDS011;5500;49.886;8.074;2024-03-17T01:10:05;7.77;;;4.10;;
10894;SDS011;5500;49.886;8.074;2024-03-17T01:12:34;4.30;;;3.47;;
10894;SDS011;5500;49.886;8.074;2024-03-17T01:15:02;4.63;;;3.50;;
10894;SDS011;5500;49.886;8.074;2024-03-17T01:17:29;9.30;;;3.97;;
10894;SDS011;5500;49.886;8.074;2024-03-17T01:19:55;4.87;;;4.00;;
10894;SDS011;5500;49.886;8.074;2024-03-17T01:22:22;4.87;;;4.27;;
10894;SDS011;5500;49.886;8.074;2024-03-17T01:24:48;5.23;;;4.13;;
10894;SDS011;5500;49.886;8.074;2024-03-17T01:27:14;5.73;;;4.20;;
10894;SDS011;5500;49.886;8.074;2024-03-17T01:29:41;6.27;;;4.47;;
10894;SDS011;5500;49.886;8.074;2024-03-17T01:32:09;6.13;;;4.90;;
10894;SDS011;5500;49.886;8.074;2024-03-17T01:34:36;6.83;;;4.20;;
10894;SDS011;5500;49.886;8.074;2024-03-17T01:37:03;6.33;;;4.03;;
10894;SDS011;5500;49.886;8.074;2024-03-17T01:39:29;5.70;;;3.97;;
10894;SDS011;5500;49.886;8.074;2024-03-17T01:41:57;5.80;;;4.50;;
10894;SDS011;5500;49.886;8.074;2024-03-17T01:44:23;4.40;;;4.00;;
10894;SDS011;5500;49.886;8.074;2024-03-17T01:46:51;6.70;;;4.20;;
10894;SDS011;5500;49.886;8.074;2024-03-17T01:49:19;5.07;;;4.57;;
10894;SDS011;5500;49.886;8.074;2024-03-17T01:51:47;5.63;;;4.20;;
10894;SDS011;5500;49.886;8.074;2024-03-17T01:54:14;7.23;;;4.43;;
10894;SDS011;5500;49.886;8.074;2024-03-17T01:56:41;6.83;;;4.40;;
10894;SDS011;5500;49.886;8.074;2024-03-17T01:59:08;5.60;;;3.63;;
10894;SDS011;5500;49.886;8.074;2024-03-17T02:01:34;5.63;;;5.00;;
10894;SDS011;5500;49.886;8.074;2024-03-17T02:04:01;9.80;;;5.30;;
10894;SDS011;5500;49.886;8.074;2024-03-17T02:06:28;8.20;;;5.37;;
10894;SDS011;5500;49.886;8.074;2024-03-17T02:08:56;5.13;;;4.63;;
10894;SDS011;5500;49.886;8.074;2024-03-17T02:11:25;6.53;;;5.00;;
10894;SDS011;5500;49.886;8.074;2024-03-17T02:13:53;7.77;;;4.90;;
10894;SDS011;5500;49.886;8.074;2024-03-17T02:16:19;6.03;;;5.13;;
10894;SDS011;5500;49.886;8.074;2024-03-17T02:18:46;6.50;;;5.07;;
10894;SDS011;5500;49.886;8.074;2024-03-17T02:21:12;8.70;;;5.27;;
10894;SDS011;5500;49.886;8.074;2024-03-17T02:23:40;5.57;;;5.07;;
10894;SDS011;5500;49.886;8.074;2024-03-17T02:26:07;5.57;;;4.90;;
10894;SDS011;5500;49.886;8.074;2024-03-17T02:28:40;5.57;;;5.03;;
10894;SDS011;5500;49.886;8.074;2024-03-17T02:31:08;7.17;;;5.40;;
10894;SDS011;5500;49.886;8.074;2024-03-17T02:33:35;6.37;;;5.70;;
10894;SDS011;5500;49.886;8.074;2024-03-17T02:36:02;7.70;;;5.63;;
10894;SDS011;5500;49.886;8.074;2024-03-17T02:38:29;6.57;;;5.97;;
10894;SDS011;5500;49.886;8.074;2024-03-17T02:41:15;6.43;;;5.43;;
10894;SDS011;5500;49.886;8.074;2024-03-17T02:43:42;7.77;;;5.70;;
10894;SDS011;5500;49.886;8.074;2024-03-17T02:46:10;9.07;;;5.63;;
10894;SDS011;5500;49.886;8.074;2024-03-17T02:48:38;15.03;;;5.43;;
10894;SDS011;5500;49.886;8.074;2024-03-17T02:51:10;7.13;;;5.43;;
10894;SDS011;5500;49.886;8.074;2024-03-17T02:53:37;7.67;;;5.77;;
10894;SDS011;5500;49.886;8.074;2024-03-17T02:56:04;6.67;;;5.33;;
10894;SDS011;5500;49.886;8.074;2024-03-17T02:58:33;6.43;;;5.80;;
10894;SDS011;5500;49.886;8.074;2024-03-17T03:01:01;7.00;;;5.63;;
10894;SDS011;5500;49.886;8.074;2024-03-17T03:03:27;7.83;;;5.80;;
10894;SDS011;5500;49.886;8.074;2024-03-17T03:05:54;8.17;;;5.37;;
10894;SDS011;5500;49.886;8.074;2024-03-17T03:08:23;7.30;;;5.53;;
10894;SDS011;5500;49.886;8.074;2024-03-17T03:10:50;6.67;;;5.23;;
10894;SDS011;5500;49.886;8.074;2024-03-17T03:13:17;8.43;;;5.63;;
10894;SDS011;5500;49.886;8.074;2024-03-17T03:15:47;6.47;;;5.43;;
10894;SDS011;5500;49.886;8.074;2024-03-17T03:18:14;6.87;;;5.27;;
10894;SDS011;5500;49.886;8.074;2024-03-17T03:20:40;7.77;;;5.60;;
10894;SDS011;5500;49.886;8.074;2024-03-17T03:23:08;6.37;;;5.77;;
10894;SDS011;5500;49.886;8.074;2024-03-17T03:25:35;8.40;;;5.17;;
10894;SDS011;5500;49.886;8.074;2024-03-17T03:28:02;6.30;;;5.17;;
10894;SDS011;5500;49.886;8.074;2024-03-17T03:30:29;6.40;;;5.37;;
10894;SDS011;5500;49.886;8.074;2024-03-17T03:32:57;6.57;;;4.90;;
10894;SDS011;5500;49.886;8.074;2024-03-17T03:35:24;7.97;;;6.17;;
10894;SDS011;5500;49.886;8.074;2024-03-17T03:37:54;7.40;;;4.93;;
10894;SDS011;5500;49.886;8.074;2024-03-17T03:40:21;9.03;;;5.83;;
10894;SDS011;5500;49.886;8.074;2024-03-17T03:42:47;8.13;;;5.90;;
10894;SDS011;5500;49.886;8.074;2024-03-17T03:45:14;6.63;;;5.53;;
10894;SDS011;5500;49.886;8.074;2024-03-17T03:47:41;7.13;;;6.13;;
10894;SDS011;5500;49.886;8.074;2024-03-17T03:50:10;8.53;;;6.40;;
10894;SDS011;5500;49.886;8.074;2024-03-17T03:52:37;7.40;;;5.97;;
10894;SDS011;5500;49.886;8.074;2024-03-17T03:55:06;8.87;;;6.30;;
10894;SDS011;5500;49.886;8.074;2024-03-17T03:57:35;7.40;;;6.57;;
10894;SDS011;5500;49.886;8.074;2024-03-17T04:00:02;9.33;;;6.80;;
10894;SDS011;5500;49.886;8.074;2024-03-17T04:02:31;7.73;;;6.40;;
10894;SDS011;5500;49.886;8.074;2024-03-17T04:04:59;9.00;;;6.63;;
10894;SDS011;5500;49.886;8.074;2024-03-17T04:07:27;7.70;;;6.67;;
10894;SDS011;5500;49.886;8.074;2024-03-17T04:09:54;11.63;;;6.33;;
10894;SDS011;5500;49.886;8.074;2024-03-17T04:12:21;8.83;;;6.63;;
10894;SDS011;5500;49.886;8.074;2024-03-17T04:14:48;8.93;;;7.17;;
10894;SDS011;5500;49.886;8.074;2024-03-17T04:17:17;7.43;;;6.53;;
10894;SDS011;5500;49.886;8.074;2024-03-17T04:19:46;7.37;;;6.17;;
10894;SDS011;5500;49.886;8.074;2024-03-17T04:22:13;9.03;;;6.90;;
10894;SDS011;5500;49.886;8.074;2024-03-17T04:24:42;10.43;;;7.20;;
10894;SDS011;5500;49.886;8.074;2024-03-17T04:27:08;11.00;;;7.43;;
10894;SDS011;5500;49.886;8.074;2024-03-17T04:29:35;10.67;;;7.70;;
10894;SDS011;5500;49.886;8.074;2024-03-17T04:32:02;8.87;;;7.13;;
10894;SDS011;5500;49.886;8.074;2024-03-17T04:34:30;9.00;;;7.80;;
10894;SDS011;5500;49.886;8.074;2024-03-17T04:36:57;13.03;;;8.03;;
10894;SDS011;5500;49.886;8.074;2024-03-17T04:39:24;9.33;;;7.63;;
10894;SDS011;5500;49.886;8.074;2024-03-17T04:41:52;9.00;;;7.80;;
10894;SDS011;5500;49.886;8.074;2024-03-17T04:44:19;11.13;;;8.10;;
10894;SDS011;5500;49.886;8.074;2024-03-17T04:46:46;8.17;;;7.30;;
10894;SDS011;5500;49.886;8.074;2024-03-17T04:49:12;8.30;;;6.90;;
10894;SDS011;5500;49.886;8.074;2024-03-17T04:51:39;9.03;;;7.67;;
10894;SDS011;5500;49.886;8.074;2024-03-17T04:54:06;12.93;;;7.83;;
10894;SDS011;5500;49.886;8.074;2024-03-17T04:56:33;10.73;;;7.53;;
10894;SDS011;5500;49.886;8.074;2024-03-17T04:59:01;10.00;;;8.47;;
10894;SDS011;5500;49.886;8.074;2024-03-17T05:01:28;10.77;;;7.80;;
10894;SDS011;5500;49.886;8.074;2024-03-17T05:03:56;11.27;;;8.53;;
10894;SDS011;5500;49.886;8.074;2024-03-17T05:06:23;10.30;;;8.80;;
10894;SDS011;5500;49.886;8.074;2024-03-17T05:08:49;8.57;;;7.67;;
10894;SDS011;5500;49.886;8.074;2024-03-17T05:11:16;11.23;;;7.73;;
10894;SDS011;5500;49.886;8.074;2024-03-17T05:13:44;8.90;;;7.90;;
10894;SDS011;5500;49.886;8.074;2024-03-17T05:16:12;11.37;;;8.13;;
10894;SDS011;5500;49.886;8.074;2024-03-17T05:18:39;10.00;;;8.20;;
10894;SDS011;5500;49.886;8.074;2024-03-17T05:21:06;9.43;;;7.73;;
10894;SDS011;5500;49.886;8.074;2024-03-17T05:23:33;9.97;;;7.50;;
10894;SDS011;5500;49.886;8.074;2024-03-17T05:26:01;10.70;;;8.03;;
10894;SDS011;5500;49.886;8.074;2024-03-17T05:28:29;11.97;;;8.50;;
10894;SDS011;5500;49.886;8.074;2024-03-17T05:30:56;9.37;;;8.07;;
10894;SDS011;5500;49.886;8.074;2024-03-17T05:33:25;11.20;;;9.33;;
10894;SDS011;5500;49.886;8.074;2024-03-17T05:35:52;12.20;;;9.07;;
10894;SDS011;5500;49.886;8.074;2024-03-17T05:38:20;13.33;;;9.03;;
10894;SDS011;5500;49.886;8.074;2024-03-17T05:40:54;14.27;;;8.17;;
10894;SDS011;5500;49.886;8.074;2024-03-17T05:43:21;11.77;;;9.20;;
10894;SDS011;5500;49.886;8.074;2024-03-17T05:45:49;13.20;;;9.40;;
10894;SDS011;5500;49.886;8.074;2024-03-17T05:48:16;13.53;;;9.60;;
10894;SDS011;5500;49.886;8.074;2024-03-17T05:50:45;13.00;;;10.00;;
10894;SDS011;5500;49.886;8.074;2024-03-17T05:53:11;13.80;;;10.50;;
10894;SDS011;5500;49.886;8.074;2024-03-17T05:55:38;14.53;;;9.43;;
10894;SDS011;5500;49.886;8.074;2024-03-17T05:58:06;12.33;;;9.10;;
10894;SDS011;5500;49.886;8.074;2024-03-17T06:00:34;12.63;;;8.57;;
10894;SDS011;5500;49.886;8.074;2024-03-17T06:03:00;13.33;;;9.63;;
10894;SDS011;5500;49.886;8.074;2024-03-17T06:05:30;14.63;;;9.73;;
10894;SDS011;5500;49.886;8.074;2024-03-17T06:07:59;13.33;;;9.00;;
10894;SDS011;5500;49.886;8.074;2024-03-17T06:10:27;18.83;;;10.13;;
10894;SDS011;5500;49.886;8.074;2024-03-17T06:12:54;13.33;;;9.20;;
10894;SDS011;5500;49.886;8.074;2024-03-17T06:15:21;11.87;;;10.60;;
10894;SDS011;5500;49.886;8.074;2024-03-17T06:17:49;12.23;;;9.77;;
10894;SDS011;5500;49.886;8.074;2024-03-17T06:20:17;14.80;;;10.20;;
10894;SDS011;5500;49.886;8.074;2024-03-17T06:22:43;11.13;;;9.77;;
10894;SDS011;5500;49.886;8.074;2024-03-17T06:25:12;13.83;;;9.87;;
10894;SDS011;5500;49.886;8.074;2024-03-17T06:27:39;11.27;;;9.87;;
10894;SDS011;5500;49.886;8.074;2024-03-17T06:30:06;13.77;;;9.80;;
10894;SDS011;5500;49.886;8.074;2024-03-17T06:32:33;12.73;;;10.03;;
10894;SDS011;5500;49.886;8.074;2024-03-17T06:35:01;11.63;;;10.27;;
10894;SDS011;5500;49.886;8.074;2024-03-17T06:37:27;14.93;;;10.87;;
10894;SDS011;5500;49.886;8.074;2024-03-17T06:39:54;14.50;;;10.90;;
10894;SDS011;5500;49.886;8.074;2024-03-17T06:42:22;13.23;;;10.03;;
10894;SDS011;5500;49.886;8.074;2024-03-17T06:44:49;14.07;;;12.50;;
10894;SDS011;5500;49.886;8.074;2024-03-17T06:47:16;31.67;;;23.17;;
10894;SDS011;5500;49.886;8.074;2024-03-17T06:49:44;29.70;;;24.60;;
10894;SDS011;5500;49.886;8.074;2024-03-17T06:52:11;25.67;;;21.23;;
10894;SDS011;5500;49.886;8.074;2024-03-17T06:54:37;13.33;;;11.87;;
10894;SDS011;5500;49.886;8.074;2024-03-17T06:57:05;13.37;;;10.10;;
10894;SDS011;5500;49.886;8.074;2024-03-17T06:59:33;14.97;;;10.67;;
10894;SDS011;5500;49.886;8.074;2024-03-17T07:02:00;14.17;;;10.43;;
10894;SDS011;5500;49.886;8.074;2024-03-17T07:04:27;10.47;;;9.37;;
10894;SDS011;5500;49.886;8.074;2024-03-17T07:06:54;14.57;;;10.97;;
10894;SDS011;5500;49.886;8.074;2024-03-17T07:09:20;15.23;;;11.63;;
10894;SDS011;5500;49.886;8.074;2024-03-17T07:11:47;12.17;;;9.40;;
10894;SDS011;5500;49.886;8.074;2024-03-17T07:14:15;12.33;;;9.70;;
10894;SDS011;5500;49.886;8.074;2024-03-17T07:16:43;12.13;;;9.37;;
10894;SDS011;5500;49.886;8.074;2024-03-17T07:19:10;12.73;;;9.30;;
10894;SDS011;5500;49.886;8.074;2024-03-17T07:21:36;10.80;;;8.27;;
10894;SDS011;5500;49.886;8.074;2024-03-17T07:24:03;11.40;;;8.60;;
10894;SDS011;5500;49.886;8.074;2024-03-17T07:26:30;10.23;;;8.47;;
10894;SDS011;5500;49.886;8.074;2024-03-17T07:28:58;12.20;;;8.97;;
10894;SDS011;5500;49.886;8.074;2024-03-17T07:31:25;12.93;;;8.57;;
10894;SDS011;5500;49.886;8.074;2024-03-17T07:33:53;10.53;;;7.60;;
10894;SDS011;5500;49.886;8.074;2024-03-17T07:36:19;11.03;;;8.53;;
10894;SDS011;5500;49.886;8.074;2024-03-17T07:38:47;9.90;;;8.20;;
10894;SDS011;5500;49.886;8.074;2024-03-17T07:41:14;11.13;;;8.33;;
10894;SDS011;5500;49.886;8.074;2024-03-17T07:43:40;10.23;;;8.80;;
10894;SDS011;5500;49.886;8.074;2024-03-17T07:46:08;10.13;;;8.20;;
10894;SDS011;5500;49.886;8.074;2024-03-17T07:48:37;9.97;;;8.07;;
10894;SDS011;5500;49.886;8.074;2024-03-17T07:51:06;10.87;;;8.20;;
10894;SDS011;5500;49.886;8.074;2024-03-17T07:53:34;9.93;;;8.00;;
10894;SDS011;5500;49.886;8.074;2024-03-17T07:56:02;12.57;;;8.33;;
10894;SDS011;5500;49.886;8.074;2024-03-17T07:58:30;10.00;;;8.47;;
10894;SDS011;5500;49.886;8.074;2024-03-17T08:00:58;9.67;;;8.27;;
10894;SDS011;5500;49.886;8.074;2024-03-17T08:03:26;9.30;;;8.30;;
10894;SDS011;5500;49.886;8.074;2024-03-17T08:05:53;11.47;;;7.67;;
10894;SDS011;5500;49.886;8.074;2024-03-17T08:08:21;11.33;;;8.53;;
10894;SDS011;5500;49.886;8.074;2024-03-17T08:10:47;10.80;;;7.50;;
10894;SDS011;5500;49.886;8.074;2024-03-17T08:13:14;12.60;;;7.47;;
10894;SDS011;5500;49.886;8.074;2024-03-17T08:15:42;10.03;;;8.17;;
10894;SDS011;5500;49.886;8.074;2024-03-17T08:18:09;7.93;;;7.13;;
10894;SDS011;5500;49.886;8.074;2024-03-17T08:20:36;11.87;;;7.83;;
10894;SDS011;5500;49.886;8.074;2024-03-17T08:23:04;9.03;;;7.13;;
10894;SDS011;5500;49.886;8.074;2024-03-17T08:25:33;9.53;;;7.30;;
10894;SDS011;5500;49.886;8.074;2024-03-17T08:28:00;8.37;;;7.47;;
10894;SDS011;5500;49.886;8.074;2024-03-17T08:30:27;8.30;;;7.10;;
10894;SDS011;5500;49.886;8.074;2024-03-17T08:32:53;11.03;;;7.77;;
10894;SDS011;5500;49.886;8.074;2024-03-17T08:35:20;9.20;;;7.83;;
10894;SDS011;5500;49.886;8.074;2024-03-17T08:37:47;8.17;;;7.20;;
10894;SDS011;5500;49.886;8.074;2024-03-17T08:40:14;11.17;;;8.63;;
10894;SDS011;5500;49.886;8.074;2024-03-17T08:42:42;8.83;;;7.60;;
10894;SDS011;5500;49.886;8.074;2024-03-17T08:45:09;9.43;;;7.67;;
10894;SDS011;5500;49.886;8.074;2024-03-17T08:47:36;10.97;;;7.37;;
10894;SDS011;5500;49.886;8.074;2024-03-17T08:50:03;10.17;;;7.90;;
10894;SDS011;5500;49.886;8.074;2024-03-17T08:52:32;10.60;;;8.07;;
10894;SDS011;5500;49.886;8.074;2024-03-17T08:54:59;10.83;;;8.47;;
10894;SDS011;5500;49.886;8.074;2024-03-17T08:57:28;11.20;;;8.40;;
10894;SDS011;5500;49.886;8.074;2024-03-17T08:59:56;10.67;;;7.77;;
10894;SDS011;5500;49.886;8.074;2024-03-17T09:02:23;8.77;;;7.87;;
10894;SDS011;5500;49.886;8.074;2024-03-17T09:04:49;10.67;;;7.63;;
10894;SDS011;5500;49.886;8.074;2024-03-17T09:07:16;11.77;;;8.63;;
10894;SDS011;5500;49.886;8.074;2024-03-17T09:09:43;9.87;;;8.30;;
10894;SDS011;5500;49.886;8.074;2024-03-17T09:12:10;8.10;;;7.30;;
10894;SDS011;5500;49.886;8.074;2024-03-17T09:14:36;11.50;;;8.13;;
10894;SDS011;5500;49.886;8.074;2024-03-17T09:17:04;12.03;;;7.47;;
10894;SDS011;5500;49.886;8.074;2024-03-17T09:19:31;9.20;;;7.50;;
10894;SDS011;5500;49.886;8.074;2024-03-17T09:21:58;13.37;;;7.57;;
10894;SDS011;5500;49.886;8.074;2024-03-17T09:24:25;9.50;;;7.80;;
10894;SDS011;5500;49.886;8.074;2024-03-17T09:26:52;9.37;;;7.33;;
10894;SDS011;5500;49.886;8.074;2024-03-17T09:29:19;8.33;;;7.40;;
10894;SDS011;5500;49.886;8.074;2024-03-17T09:31:46;9.93;;;7.23;;
10894;SDS011;5500;49.886;8.074;2024-03-17T09:34:14;7.80;;;7.00;;
10894;SDS011;5500;49.886;8.074;2024-03-17T09:36:41;8.83;;;6.60;;
10894;SDS011;5500;49.886;8.074;2024-03-17T09:39:09;9.23;;;7.07;;
10894;SDS011;5500;49.886;8.074;2024-03-17T09:41:36;7.17;;;6.47;;
10894;SDS011;5500;49.886;8.074;2024-03-17T09:44:05;11.30;;;6.90;;
10894;SDS011;5500;49.886;8.074;2024-03-17T09:46:33;7.57;;;6.00;;
10894;SDS011;5500;49.886;8.074;2024-03-17T09:49:00;8.03;;;7.17;;
10894;SDS011;5500;49.886;8.074;2024-03-17T09:51:28;8.33;;;6.60;;
10894;SDS011;5500;49.886;8.074;2024-03-17T09:53:57;11.30;;;6.87;;
10894;SDS011;5500;49.886;8.074;2024-03-17T09:56:24;9.20;;;6.17;;
10894;SDS011;5500;49.886;8.074;2024-03-17T09:58:51;9.53;;;7.03;;
10894;SDS011;5500;49.886;8.074;2024-03-17T10:01:18;6.83;;;6.13;;
10894;SDS011;5500;49.886;8.074;2024-03-17T10:03:45;7.83;;;6.47;;
10894;SDS011;5500;49.886;8.074;2024-03-17T10:06:16;6.90;;;6.20;;
10894;SDS011;5500;49.886;8.074;2024-03-17T10:08:46;8.27;;;6.73;;
10894;SDS011;5500;49.886;8.074;2024-03-17T10:11:13;8.93;;;6.67;;
10894;SDS011;5500;49.886;8.074;2024-03-17T10:13:41;7.80;;;7.00;;
10894;SDS011;5500;49.886;8.074;2024-03-17T10:16:20;8.97;;;7.47;;
10894;SDS011;5500;49.886;8.074;2024-03-17T10:18:49;7.33;;;6.57;;
10894;SDS011;5500;49.886;8.074;2024-03-17T10:21:24;8.80;;;7.10;;
10894;SDS011;5500;49.886;8.074;2024-03-17T10:24:00;9.97;;;7.23;;
10894;SDS011;5500;49.886;8.074;2024-03-17T10:26:31;7.33;;;6.63;;
10894;SDS011;5500;49.886;8.074;2024-03-17T10:28:58;10.90;;;6.87;;
10894;SDS011;5500;49.886;8.074;2024-03-17T10:31:24;8.20;;;7.03;;
10894;SDS011;5500;49.886;8.074;2024-03-17T10:34:00;8.00;;;6.30;;
10894;SDS011;5500;49.886;8.074;2024-03-17T10:36:27;7.00;;;6.23;;
10894;SDS011;5500;49.886;8.074;2024-03-17T10:38:54;8.87;;;6.97;;
10894;SDS011;5500;49.886;8.074;2024-03-17T10:41:22;7.50;;;6.70;;
10894;SDS011;5500;49.886;8.074;2024-03-17T10:43:49;10.10;;;6.83;;
10894;SDS011;5500;49.886;8.074;2024-03-17T10:46:16;9.13;;;7.53;;
10894;SDS011;5500;49.886;8.074;2024-03-17T10:48:43;9.37;;;7.50;;
10894;SDS011;5500;49.886;8.074;2024-03-17T10:51:13;9.33;;;7.47;;
10894;SDS011;5500;49.886;8.074;2024-03-17T10:53:43;8.20;;;6.70;;
10894;SDS011;5500;49.886;8.074;2024-03-17T10:56:12;9.43;;;7.33;;
10894;SDS011;5500;49.886;8.074;2024-03-17T10:58:43;8.33;;;7.13;;
10894;SDS011;5500;49.886;8.074;2024-03-17T11:01:13;7.37;;;6.67;;
10894;SDS011;5500;49.886;8.074;2024-03-17T11:03:40;7.23;;;6.43;;
10894;SDS011;5500;49.886;8.074;2024-03-17T11:06:08;8.30;;;7.30;;
10894;SDS011;5500;49.886;8.074;2024-03-17T11:08:35;7.07;;;6.43;;
10894;SDS011;5500;49.886;8.074;2024-03-17T11:11:04;7.57;;;6.87;;
10894;SDS011;5500;49.886;8.074;2024-03-17T11:13:31;7.40;;;6.70;;
10894;SDS011;5500;49.886;8.074;2024-03-17T11:16:00;8.13;;;7.30;;
10894;SDS011;5500;49.886;8.074;2024-03-17T11:21:06;8.93;;;6.27;;
10894;SDS011;5500;49.886;8.074;2024-03-17T11:23:36;7.80;;;6.50;;
10894;SDS011;5500;49.886;8.074;2024-03-17T11:26:04;7.43;;;6.60;;
10894;SDS011;5500;49.886;8.074;2024-03-17T11:28:45;7.00;;;6.30;;
10894;SDS011;5500;49.886;8.074;2024-03-17T11:31:35;9.07;;;6.83;;
10894;SDS011;5500;49.886;8.074;2024-03-17T11:34:25;7.43;;;6.60;;
10894;SDS011;5500;49.886;8.074;2024-03-17T11:36:52;7.77;;;7.07;;
10894;SDS011;5500;49.886;8.074;2024-03-17T11:39:20;7.67;;;6.70;;
10894;SDS011;5500;49.886;8.074;2024-03-17T11:41:48;7.43;;;6.50;;
10894;SDS011;5500;49.886;8.074;2024-03-17T11:44:18;7.07;;;6.37;;
10894;SDS011;5500;49.886;8.074;2024-03-17T11:46:54;7.80;;;7.00;;
10894;SDS011;5500;49.886;8.074;2024-03-17T11:49:24;10.13;;;7.07;;
10894;SDS011;5500;49.886;8.074;2024-03-17T11:51:52;9.67;;;7.13;;
10894;SDS011;5500;49.886;8.074;2024-03-17T11:54:20;8.47;;;7.67;;
10894;SDS011;5500;49.886;8.074;2024-03-17T11:56:47;9.07;;;6.90;;
10894;SDS011;5500;49.886;8.074;2024-03-17T11:59:15;7.83;;;7.03;;
10894;SDS011;5500;49.886;8.074;2024-03-17T12:01:43;9.27;;;7.23;;
10894;SDS011;5500;49.886;8.074;2024-03-17T12:04:12;7.97;;;7.17;;
10894;SDS011;5500;49.886;8.074;2024-03-17T12:06:38;7.57;;;6.67;;
10894;SDS011;5500;49.886;8.074;2024-03-17T12:09:09;8.13;;;7.17;;
10894;SDS011;5500;49.886;8.074;2024-03-17T12:11:36;7.93;;;7.20;;
10894;SDS011;5500;49.886;8.074;2024-03-17T12:14:11;9.87;;;8.60;;
10894;SDS011;5500;49.886;8.074;2024-03-17T12:16:45;8.50;;;6.97;;
10894;SDS011;5500;49.886;8.074;2024-03-17T12:19:15;10.17;;;7.73;;
10894;SDS011;5500;49.886;8.074;2024-03-17T12:21:43;8.60;;;7.50;;
10894;SDS011;5500;49.886;8.074;2024-03-17T12:24:13;9.83;;;8.27;;
10894;SDS011;5500;49.886;8.074;2024-03-17T12:26:40;9.57;;;7.87;;
10894;SDS011;5500;49.886;8.074;2024-03-17T12:29:20;9.63;;;7.63;;
10894;SDS011;5500;49.886;8.074;2024-03-17T12:31:47;11.23;;;8.37;;
10894;SDS011;5500;49.886;8.074;2024-03-17T12:34:16;8.37;;;7.57;;
10894;SDS011;5500;49.886;8.074;2024-03-17T12:36:41;8.73;;;7.83;;
10894;SDS011;5500;49.886;8.074;2024-03-17T12:39:10;9.50;;;8.60;;
10894;SDS011;5500;49.886;8.074;2024-03-17T12:41:36;8.93;;;8.03;;
10894;SDS011;5500;49.886;8.074;2024-03-17T12:44:03;9.63;;;7.50;;
10894;SDS011;5500;49.886;8.074;2024-03-17T12:46:30;8.53;;;7.73;;
10894;SDS011;5500;49.886;8.074;2024-03-17T12:48:58;9.00;;;8.10;;
10894;SDS011;5500;49.886;8.074;2024-03-17T12:51:26;9.47;;;8.50;;
10894;SDS011;5500;49.886;8.074;2024-03-17T12:56:39;10.13;;;8.90;;
10894;SDS011;5500;49.886;8.074;2024-03-17T12:59:23;9.13;;;8.27;;
10894;SDS011;5500;49.886;8.074;2024-03-17T13:02:08;9.20;;;8.23;;
10894;SDS011;5500;49.886;8.074;2024-03-17T13:04:37;8.83;;;7.93;;
10894;SDS011;5500;49.886;8.074;2024-03-17T13:07:10;9.80;;;8.60;;
10894;SDS011;5500;49.886;8.074;2024-03-17T13:09:37;11.93;;;8.60;;
10894;SDS011;5500;49.886;8.074;2024-03-17T13:12:12;10.03;;;8.97;;
10894;SDS011;5500;49.886;8.074;2024-03-17T13:14:41;21.67;;;9.40;;
10894;SDS011;5500;49.886;8.074;2024-03-17T13:17:08;11.20;;;10.00;;
10894;SDS011;5500;49.886;8.074;2024-03-17T13:19:44;8.60;;;7.80;;
10894;SDS011;5500;49.886;8.074;2024-03-17T13:22:13;9.23;;;8.33;;
10894;SDS011;5500;49.886;8.074;2024-03-17T13:24:40;10.73;;;8.33;;
10894;SDS011;5500;49.886;8.074;2024-03-17T13:27:06;9.33;;;8.43;;
10894;SDS011;5500;49.886;8.074;2024-03-17T13:29:33;10.03;;;8.33;;
10894;SDS011;5500;49.886;8.074;2024-03-17T13:32:01;11.47;;;8.43;;
10894;SDS011;5500;49.886;8.074;2024-03-17T13:34:28;11.17;;;8.97;;
10894;SDS011;5500;49.886;8.074;2024-03-17T13:36:55;11.27;;;8.83;;
10894;SDS011;5500;49.886;8.074;2024-03-17T13:39:26;10.47;;;9.33;;
10894;SDS011;5500;49.886;8.074;2024-03-17T13:41:57;10.67;;;8.90;;
10894;SDS011;5500;49.886;8.074;2024-03-17T13:44:28;10.80;;;8.80;;
10894;SDS011;5500;49.886;8.074;2024-03-17T13:46:55;9.70;;;8.70;;
10894;SDS011;5500;49.886;8.074;2024-03-17T13:49:22;10.30;;;9.20;;
10894;SDS011;5500;49.886;8.074;2024-03-17T13:51:49;10.47;;;9.37;;
10894;SDS011;5500;49.886;8.074;2024-03-17T13:54:16;9.97;;;8.90;;
10894;SDS011;5500;49.886;8.074;2024-03-17T13:56:47;13.47;;;10.73;;
10894;SDS011;5500;49.886;8.074;2024-03-17T13:59:14;10.27;;;9.27;;
10894;SDS011;5500;49.886;8.074;2024-03-17T14:01:41;10.23;;;9.10;;
10894;SDS011;5500;49.886;8.074;2024-03-17T14:04:10;11.63;;;9.67;;
10894;SDS011;5500;49.886;8.074;2024-03-17T14:06:39;11.77;;;9.67;;
10894;SDS011;5500;49.886;8.074;2024-03-17T14:09:06;10.30;;;8.97;;
10894;SDS011;5500;49.886;8.074;2024-03-17T14:11:34;10.53;;;9.40;;
10894;SDS011;5500;49.886;8.074;2024-03-17T14:14:02;10.30;;;9.00;;
10894;SDS011;5500;49.886;8.074;2024-03-17T14:16:30;10.33;;;9.23;;
10894;SDS011;5500;49.886;8.074;2024-03-17T14:18:58;10.27;;;9.00;;
10894;SDS011;5500;49.886;8.074;2024-03-17T14:21:25;11.70;;;9.47;;
10894;SDS011;5500;49.886;8.074;2024-03-17T14:23:52;11.27;;;9.17;;
10894;SDS011;5500;49.886;8.074;2024-03-17T14:26:19;9.20;;;8.30;;
10894;SDS011;5500;49.886;8.074;2024-03-17T14:28:46;12.50;;;8.47;;
10894;SDS011;5500;49.886;8.074;2024-03-17T14:31:15;10.03;;;8.80;;
10894;SDS011;5500;49.886;8.074;2024-03-17T14:33:42;10.33;;;8.60;;
10894;SDS011;5500;49.886;8.074;2024-03-17T14:36:09;11.23;;;8.83;;
10894;SDS011;5500;49.886;8.074;2024-03-17T14:38:36;10.93;;;8.50;;
10894;SDS011;5500;49.886;8.074;2024-03-17T14:41:03;10.37;;;9.00;;
10894;SDS011;5500;49.886;8.074;2024-03-17T14:43:29;10.60;;;8.97;;
10894;SDS011;5500;49.886;8.074;2024-03-17T14:45:56;10.63;;;8.67;;
10894;SDS011;5500;49.886;8.074;2024-03-17T14:48:24;10.33;;;9.20;;
10894;SDS011;5500;49.886;8.074;2024-03-17T14:50:51;12.60;;;8.63;;
10894;SDS011;5500;49.886;8.074;2024-03-17T14:53:18;8.83;;;7.83;;
10894;SDS011;5500;49.886;8.074;2024-03-17T14:55:45;12.80;;;10.20;;
10894;SDS011;5500;49.886;8.074;2024-03-17T14:58:12;9.77;;;8.77;;
10894;SDS011;5500;49.886;8.074;2024-03-17T15:00:40;9.67;;;8.67;;
10894;SDS011;5500;49.886;8.074;2024-03-17T15:03:07;9.77;;;8.17;;
10894;SDS011;5500;49.886;8.074;2024-03-17T15:05:35;9.57;;;8.57;;